Авиационная погода в Миккели

Регион: 
Погода METAR: 
EFMI 271450Z AUTO 27004KT CAVOK 01/M04 Q1019
Время наблюдения
2021-02-27T14:50:00Z
Температура C
1.0
Точка росы
-4.0
Направление ветра
270
Скорость ветра (узлы)
4
Метео видимость
6.21
Явления погоды
Условия полета
VFR